Time;durP1;ratioP1;P1;durP2;ratioP2;P2;SDS_P1;SDS_P2;PMS_P1;PMS_P2;Temp;Humidity;BMP_temperature;BMP_pressure;BME280_temperature;BME280_humidity;BME280_pressure;Samples;Min_cycle;Max_cycle;Signal;HPM_P1;HPM_P2
2022/08/22 00:02:05;;;;;;;4.37;3.15;;;;;;;19.18;95.59;98475.19;4497939;31;34089;-85
2022/08/22 00:04:57;;;;;;;5.60;4.15;;;;;;;19.12;96.26;98472.00;4501683;31;33355;-87
2022/08/22 00:07:52;;;;;;;5.80;3.70;;;;;;;19.25;94.78;98482.69;4492731;31;33926;-87
2022/08/22 00:10:30;;;;;;;5.45;3.50;;;;;;;18.98;94.75;98482.53;4501712;31;35957;-86
2022/08/22 00:13:06;;;;;;;6.15;3.72;;;;;;;18.54;98.87;98480.66;4500914;31;34883;-86
2022/08/22 00:15:38;;;;;;;6.75;3.47;;;;;;;18.76;99.67;98482.91;4487627;31;33578;-86
2022/08/22 00:18:43;;;;;;;5.70;3.67;;;;;;;18.79;99.74;98476.59;4486034;31;32821;-85
2022/08/22 00:24:12;;;;;;;6.57;3.37;;;;;;;19.00;95.46;98477.16;4500611;31;33596;-86
2022/08/22 00:26:47;;;;;;;4.80;3.03;;;;;;;19.12;93.89;98472.00;4501168;31;33528;-88
2022/08/22 00:29:30;;;;;;;5.22;3.55;;;;;;;19.01;95.84;98471.78;4484944;32;33515;-86
2022/08/22 00:32:11;;;;;;;5.32;3.80;;;;;;;18.47;99.51;98471.38;4486147;31;35750;-85
2022/08/22 00:34:47;;;;;;;5.57;3.95;;;;;;;18.62;99.84;98472.28;4501841;31;34360;-86
2022/08/22 00:37:24;;;;;;;5.10;3.42;;;;;;;18.59;98.92;98478.59;4497488;31;33779;-85
2022/08/22 00:39:59;;;;;;;5.18;3.72;;;;;;;19.13;94.40;98473.69;4488454;31;33624;-85
2022/08/22 00:42:39;;;;;;;5.75;3.17;;;;;;;18.74;96.72;98477.72;4488849;31;35796;-86
2022/08/22 00:45:25;;;;;;;5.45;3.55;;;;;;;18.87;96.47;98477.88;4501372;31;34750;-87
2022/08/22 00:48:15;;;;;;;6.57;3.97;;;;;;;18.71;98.10;98488.44;4500644;31;34427;-86
2022/08/22 00:51:04;;;;;;;5.35;3.58;;;;;;;18.71;98.63;98477.88;4498908;31;33458;-86
2022/08/22 00:54:00;;;;;;;6.12;4.32;;;;;;;18.56;97.49;98479.63;4500297;31;35991;-86
2022/08/22 00:57:06;;;;;;;6.35;3.62;;;;;;;18.87;97.49;98479.66;4499785;31;34376;-85
2022/08/22 01:00:02;;;;;;;6.18;3.62;;;;;;;18.70;98.63;98480.59;4436598;32;33208;-85
2022/08/22 01:02:33;;;;;;;7.03;4.33;;;;;;;19.21;93.58;98482.94;4483762;31;33909;-86
2022/08/22 01:05:20;;;;;;;6.53;3.75;;;;;;;18.84;96.50;98477.22;4484116;32;35007;-86
2022/08/22 01:08:02;;;;;;;5.28;3.62;;;;;;;18.97;96.13;98482.59;4490976;31;35191;-87
2022/08/22 01:10:55;;;;;;;5.43;3.35;;;;;;;18.73;96.83;98478.66;4479589;31;32170;-84
2022/08/22 01:13:50;;;;;;;5.07;3.22;;;;;;;18.97;94.70;98483.47;4498779;31;33903;-87
2022/08/22 01:16:34;;;;;;;5.22;3.35;;;;;;;18.93;95.53;98480.12;4500958;31;35989;-86
2022/08/22 01:19:32;;;;;;;4.97;3.22;;;;;;;19.06;94.49;98482.06;4497815;31;34110;-86
2022/08/22 01:22:48;;;;;;;5.28;3.45;;;;;;;19.09;92.91;98482.72;4499120;31;33803;-86
2022/08/22 01:25:46;;;;;;;5.00;2.70;;;;;;;19.13;94.04;98475.50;4435190;32;33803;-86
2022/08/22 01:28:45;;;;;;;4.80;2.70;;;;;;;18.78;95.83;98465.19;4493314;31;35065;-86
2022/08/22 01:31:32;;;;;;;6.05;3.65;;;;;;;18.89;95.78;98469.87;4499545;31;34628;-86
2022/08/22 01:34:28;;;;;;;3.80;2.70;;;;;;;19.17;93.17;98471.72;4499762;31;33279;-86
2022/08/22 01:37:03;;;;;;;5.07;3.30;;;;;;;19.19;94.02;98471.63;4500716;31;34087;-86
2022/08/22 01:39:34;;;;;;;11.52;2.55;;;;;;;18.93;95.26;98474.03;4495921;31;34908;-85
2022/08/22 01:42:14;;;;;;;5.60;2.80;;;;;;;19.28;93.43;98477.19;4499113;31;34425;-87
2022/08/22 01:44:45;;;;;;;4.68;3.08;;;;;;;19.84;88.76;98476.50;4484795;32;33220;-86
2022/08/22 01:47:20;;;;;;;6.53;2.92;;;;;;;19.53;89.94;98478.34;4485320;31;33978;-86
2022/08/22 01:49:53;;;;;;;7.80;2.67;;;;;;;19.32;92.95;98477.84;4486318;31;34537;-86
2022/08/22 01:52:37;;;;;;;4.65;2.87;;;;;;;19.63;89.93;98476.84;4498604;31;35255;-86
2022/08/22 01:55:29;;;;;;;4.53;3.12;;;;;;;19.64;89.25;98475.91;4499616;31;33215;-86
2022/08/22 01:58:00;;;;;;;4.57;2.90;;;;;;;19.63;91.09;98478.63;4490666;31;34397;-85
2022/08/22 02:00:33;;;;;;;4.18;2.92;;;;;;;19.83;88.83;98472.97;4497997;31;35427;-86
2022/08/22 02:03:15;;;;;;;5.15;3.50;;;;;;;19.81;89.11;98474.03;4498529;31;34413;-86
2022/08/22 02:05:58;;;;;;;4.45;3.00;;;;;;;19.58;90.42;98470.16;4500199;31;33658;-86
2022/08/22 02:08:44;;;;;;;4.82;2.87;;;;;;;19.36;93.19;98473.25;4498124;31;34216;-86
2022/08/22 02:11:39;;;;;;;6.93;3.00;;;;;;;19.78;89.38;98471.56;4488225;31;34294;-86
2022/08/22 02:14:32;;;;;;;4.93;3.20;;;;;;;18.98;95.85;98468.47;4490945;31;34807;-85
2022/08/22 02:17:34;;;;;;;4.45;2.87;;;;;;;18.94;96.04;98462.53;4486741;32;33553;-85
2022/08/22 02:20:10;;;;;;;5.00;3.20;;;;;;;19.33;92.46;98469.00;4485555;32;33854;-86
2022/08/22 02:23:22;;;;;;;5.00;3.27;;;;;;;19.39;92.10;98463.34;4475021;31;35016;-86
2022/08/22 02:25:56;;;;;;;4.25;2.85;;;;;;;19.92;89.02;98457.50;4495955;31;34407;-86
2022/08/22 02:28:44;;;;;;;6.87;2.75;;;;;;;19.84;89.00;98469.41;4498416;31;33693;-86
2022/08/22 02:31:39;;;;;;;3.95;2.65;;;;;;;19.77;88.76;98460.16;4484663;31;33330;-88
2022/08/22 02:34:54;;;;;;;4.32;2.83;;;;;;;19.97;88.92;98455.41;4499259;31;35889;-85
2022/08/22 02:37:39;;;;;;;4.25;2.60;;;;;;;20.35;85.04;98462.69;4423704;32;35031;-85
2022/08/22 02:40:24;;;;;;;4.70;2.92;;;;;;;19.33;91.94;98455.81;4459784;32;32859;-85
2022/08/22 02:43:09;;;;;;;4.37;3.03;;;;;;;19.89;88.98;98451.47;4474528;31;32060;-85
2022/08/22 02:46:02;;;;;;;4.57;3.08;;;;;;;19.70;90.47;98454.37;4473899;31;34291;-86
2022/08/22 02:48:35;;;;;;;5.40;3.15;;;;;;;20.16;86.67;98445.38;4474513;31;34773;-85
2022/08/22 02:51:26;;;;;;;4.93;3.03;;;;;;;19.99;88.23;98451.72;4502268;31;34421;-84
2022/08/22 02:53:56;;;;;;;5.68;3.55;;;;;;;20.16;86.58;98448.00;4482924;32;32549;-87
2022/08/22 02:56:43;;;;;;;4.75;3.00;;;;;;;19.68;91.15;98448.34;4472378;32;33890;-87
2022/08/22 02:59:22;;;;;;;8.15;3.72;;;;;;;19.82;89.49;98444.88;4470578;32;33911;-85
2022/08/22 03:01:50;;;;;;;4.60;3.25;;;;;;;19.52;92.49;98448.47;4476703;31;33194;-84
2022/08/22 03:04:44;;;;;;;8.32;3.40;;;;;;;20.00;88.83;98444.66;4474201;31;32486;-85
2022/08/22 03:07:28;;;;;;;6.80;3.65;;;;;;;20.00;88.03;98442.88;4475033;31;34574;-85
2022/08/22 03:10:21;;;;;;;4.65;2.83;;;;;;;20.23;87.10;98444.03;4472672;31;32801;-86
2022/08/22 03:13:07;;;;;;;6.62;3.47;;;;;;;20.49;84.52;98444.13;4460794;31;32586;-88
2022/08/22 03:15:44;;;;;;;6.07;3.62;;;;;;;20.19;86.99;98452.25;4485285;31;32638;-85
2022/08/22 03:18:20;;;;;;;8.45;4.28;;;;;;;20.42;84.65;98456.06;4481689;31;34954;-88
2022/08/22 03:21:08;;;;;;;6.62;3.35;;;;;;;19.60;90.01;98452.41;4470586;32;34613;-85
2022/08/22 03:23:47;;;;;;;7.18;3.53;;;;;;;20.19;86.21;98463.69;4478887;31;33670;-87
2022/08/22 03:26:19;;;;;;;5.40;3.55;;;;;;;19.72;88.64;98459.56;4474954;31;32372;-87
2022/08/22 03:28:51;;;;;;;9.43;4.15;;;;;;;19.60;90.26;98457.69;4499645;31;35077;-84
2022/08/22 03:31:29;;;;;;;5.55;3.58;;;;;;;20.15;87.31;98463.97;4487623;31;32977;-85
2022/08/22 03:34:22;;;;;;;6.35;3.87;;;;;;;20.30;85.21;98468.28;4483684;32;32566;-84
2022/08/22 03:37:15;;;;;;;5.70;3.30;;;;;;;20.42;84.69;98469.28;4472262;32;32383;-85
2022/08/22 03:39:49;;;;;;;5.78;3.45;;;;;;;19.92;87.64;98470.72;4484121;31;34251;-84
2022/08/22 03:42:49;;;;;;;6.25;3.78;;;;;;;20.33;85.79;98475.16;4472041;32;33361;-85
2022/08/22 03:45:38;;;;;;;6.00;3.70;;;;;;;20.61;84.16;98472.44;4472043;32;32237;-87
2022/08/22 03:48:34;;;;;;;5.47;3.72;;;;;;;20.45;84.53;98475.22;4488827;31;33158;-84
2022/08/22 03:51:03;;;;;;;;;;;;;;;20.01;88.35;98475.41;4498204;31;34235;-85
2022/08/22 03:54:17;;;;;;;6.30;3.78;;;;;;;20.26;87.93;98470.25;4483785;32;33548;-84
2022/08/22 03:57:17;;;;;;;4.95;3.22;;;;;;;20.52;85.71;98470.34;4455747;32;32157;-87
2022/08/22 04:00:22;;;;;;;7.12;4.00;;;;;;;20.31;87.44;98479.69;4468320;32;34765;-84
2022/08/22 04:03:15;;;;;;;6.70;3.40;;;;;;;20.67;84.78;98473.00;4486794;31;35477;-85
2022/08/22 04:06:37;;;;;;;6.15;3.83;;;;;;;20.59;84.92;98476.94;4498862;31;33956;-82
2022/08/22 04:09:20;;;;;;;7.57;3.90;;;;;;;20.15;88.16;98485.94;4423959;32;32484;-87
2022/08/22 04:12:03;;;;;;;7.43;4.22;;;;;;;19.72;92.21;98486.00;4501466;31;33820;-87
2022/08/22 04:14:58;;;;;;;7.45;4.55;;;;;;;19.81;92.75;98477.50;4500419;31;34630;-86
2022/08/22 04:17:58;;;;;;;6.10;3.85;;;;;;;20.23;91.16;98480.19;4501578;31;34482;-85
2022/08/22 04:20:49;;;;;;;7.43;4.37;;;;;;;20.19;91.77;98481.31;4501596;31;33677;-85
2022/08/22 04:23:26;;;;;;;6.00;3.85;;;;;;;20.60;89.78;98485.75;4496966;31;34719;-88
2022/08/22 04:26:37;;;;;;;7.47;4.12;;;;;;;20.83;87.97;98481.59;4459129;32;33475;-85
2022/08/22 04:29:17;;;;;;;5.72;3.10;;;;;;;20.91;86.62;98481.94;4408593;32;32981;-84
2022/08/22 04:32:16;;;;;;;6.50;3.60;;;;;;;20.60;88.52;98486.56;4481464;31;33745;-87
2022/08/22 04:34:49;;;;;;;7.72;3.80;;;;;;;20.79;87.53;98482.75;4485725;32;33806;-87
2022/08/22 04:37:23;;;;;;;5.97;3.72;;;;;;;20.81;87.88;98484.34;4471884;32;34021;-86
2022/08/22 04:40:23;;;;;;;6.32;4.18;;;;;;;21.10;85.33;98491.28;4472040;31;35207;-86
2022/08/22 04:43:00;;;;;;;6.50;3.90;;;;;;;21.30;84.52;98487.25;4484404;32;33780;-82
2022/08/22 04:46:01;;;;;;;9.10;4.62;;;;;;;21.14;85.27;98496.28;4484444;32;33530;-88
2022/08/22 04:48:39;;;;;;;5.70;4.07;;;;;;;21.05;84.72;98499.53;4455921;31;34604;-84
2022/08/22 04:51:45;;;;;;;7.00;4.45;;;;;;;21.07;86.48;98491.47;4484535;32;34356;-86
2022/08/22 04:54:16;;;;;;;6.72;4.07;;;;;;;21.45;84.22;98506.56;4485329;32;33780;-85
2022/08/22 04:57:18;;;;;;;6.57;4.18;;;;;;;21.36;83.75;98503.59;4485692;31;33897;-85
2022/08/22 04:59:49;;;;;;;8.10;4.60;;;;;;;20.91;86.72;98503.12;4493038;31;35029;-87
2022/08/22 05:02:26;;;;;;;6.90;4.65;;;;;;;21.07;86.46;98510.00;4499782;31;33639;-87
2022/08/22 05:05:09;;;;;;;6.93;4.28;;;;;;;20.78;88.95;98502.22;4500933;31;33644;-86
2022/08/22 05:07:53;;;;;;;7.47;4.70;;;;;;;21.07;87.18;98504.72;4500976;31;34565;-85
2022/08/22 05:10:32;;;;;;;7.93;5.05;;;;;;;21.40;85.13;98507.72;4499759;31;34928;-86
2022/08/22 05:13:07;;;;;;;8.13;4.03;;;;;;;21.66;82.97;98505.09;4499721;31;34425;-87
2022/08/22 05:15:44;;;;;;;9.50;5.25;;;;;;;21.48;84.18;98512.53;4499092;31;34488;-84
2022/08/22 05:18:18;;;;;;;11.50;5.15;;;;;;;21.28;87.57;98505.91;4500776;31;33481;-88
2022/08/22 05:20:49;;;;;;;7.43;5.03;;;;;;;21.64;84.76;98506.19;4499730;31;35095;-87
2022/08/22 05:23:25;;;;;;;10.70;5.85;;;;;;;21.12;89.52;98507.91;4499610;31;35194;-86
2022/08/22 05:26:01;;;;;;;8.65;4.68;;;;;;;21.64;84.90;98514.97;4499744;31;33735;-86
2022/08/22 05:28:36;;;;;;;12.68;5.78;;;;;;;21.78;84.99;98514.00;4499657;31;33493;-87
2022/08/22 05:31:11;;;;;;;8.32;5.28;;;;;;;22.11;82.39;98518.72;4499953;31;34623;-86
2022/08/22 05:33:48;;;;;;;9.25;4.85;;;;;;;21.85;85.03;98515.28;4499520;31;34441;-86
2022/08/22 05:36:27;;;;;;;7.70;4.93;;;;;;;21.22;88.74;98516.91;4499444;31;33570;-85
2022/08/22 05:38:59;;;;;;;8.23;5.30;;;;;;;21.74;86.65;98521.31;4486414;31;32527;-86
2022/08/22 05:41:31;;;;;;;9.55;5.07;;;;;;;21.81;85.16;98524.38;4499289;31;34882;-86
2022/08/22 05:44:01;;;;;;;8.98;5.57;;;;;;;22.35;82.59;98528.53;4500296;31;34959;-86
2022/08/22 05:46:33;;;;;;;10.00;5.15;;;;;;;21.79;85.31;98528.94;4501400;31;32206;-85
2022/08/22 05:49:02;;;;;;;7.40;4.95;;;;;;;22.67;81.23;98526.19;4502003;31;34768;-86
2022/08/22 05:52:02;;;;;;;9.18;4.97;;;;;;;22.85;80.42;98534.62;4501472;31;34976;-87
2022/08/22 05:54:41;;;;;;;9.10;5.10;;;;;;;22.80;80.19;98533.25;4501358;31;33301;-85
2022/08/22 05:57:41;;;;;;;7.55;4.72;;;;;;;22.03;86.21;98539.63;4484450;31;583781;-87
2022/08/22 06:00:12;;;;;;;9.73;5.18;;;;;;;22.35;82.69;98539.16;4502120;31;33932;-86
2022/08/22 06:03:03;;;;;;;7.82;4.93;;;;;;;22.10;85.89;98546.19;4501034;31;35045;-87
2022/08/22 06:05:35;;;;;;;9.35;4.82;;;;;;;21.87;86.59;98554.91;4501455;31;34328;-87
2022/08/22 06:08:13;;;;;;;8.10;5.00;;;;;;;22.43;83.81;98552.72;4501335;31;33631;-82
2022/08/22 06:10:52;;;;;;;24.52;5.30;;;;;;;22.42;83.66;98551.03;4488347;31;34839;-87
2022/08/22 06:13:40;;;;;;;8.57;4.68;;;;;;;22.37;82.82;98549.66;4502401;31;35751;-86
2022/08/22 06:16:19;;;;;;;9.52;5.07;;;;;;;23.07;78.25;98551.63;4502407;31;34124;-88
2022/08/22 06:18:49;;;;;;;7.12;4.70;;;;;;;23.15;78.04;98548.38;4502371;31;33771;-87
2022/08/22 06:21:35;;;;;;;8.00;4.43;;;;;;;22.99;80.57;98553.97;4501380;31;33630;-89
2022/08/22 06:24:09;;;;;;;7.90;4.47;;;;;;;22.90;80.46;98551.03;4485406;32;35996;-87
2022/08/22 06:26:41;;;;;;;9.00;5.18;;;;;;;23.31;77.20;98554.22;4472415;32;33763;-87
2022/08/22 06:29:38;;;;;;;10.27;5.37;;;;;;;22.33;84.34;98559.66;4497653;31;33590;-87
2022/08/22 06:32:24;;;;;;;9.05;4.87;;;;;;;22.53;82.86;98558.19;4485439;32;33546;-87
2022/08/22 06:38:20;;;;;;;7.40;4.82;;;;;;;22.86;81.99;98560.19;4485377;32;32926;-86
2022/08/22 06:40:53;;;;;;;8.75;4.70;;;;;;;22.26;85.51;98556.53;4486110;31;34545;-83
2022/08/22 06:43:23;;;;;;;9.57;4.90;;;;;;;22.27;86.22;98563.59;4491426;31;34120;-88
2022/08/22 06:45:52;;;;;;;6.75;4.68;;;;;;;22.12;85.41;98564.62;4499042;31;35074;-88
2022/08/22 06:48:21;;;;;;;7.82;4.82;;;;;;;22.51;83.90;98563.59;4486436;32;34498;-87
2022/08/22 06:50:53;;;;;;;8.75;5.07;;;;;;;22.45;83.68;98569.38;4474012;31;33759;-87
2022/08/22 06:53:45;;;;;;;8.20;4.95;;;;;;;22.28;82.79;98567.91;4485236;32;34324;-86
2022/08/22 06:56:33;;;;;;;9.23;5.20;;;;;;;22.16;85.81;98571.41;4490502;31;35696;-87
2022/08/22 06:59:02;;;;;;;9.40;5.47;;;;;;;22.98;82.12;98574.38;4501116;31;33571;-87
2022/08/22 07:01:42;;;;;;;9.55;5.60;;;;;;;23.45;79.05;98577.09;4497103;31;33627;-87
2022/08/22 07:04:10;;;;;;;8.85;5.30;;;;;;;23.78;76.87;98572.81;4501978;31;33841;-87
2022/08/22 07:06:49;;;;;;;10.05;6.15;;;;;;;23.89;75.60;98572.84;4500694;31;35054;-88
2022/08/22 07:09:21;;;;;;;8.52;5.22;;;;;;;23.21;81.77;98575.34;4491642;31;34384;-87
2022/08/22 07:11:50;;;;;;;9.82;6.05;;;;;;;23.12;85.42;98573.38;4499702;31;33338;-88
2022/08/22 07:14:29;;;;;;;9.40;6.07;;;;;;;23.36;79.68;98565.34;4501806;31;34020;-87
2022/08/22 07:17:02;;;;;;;8.57;5.40;;;;;;;24.02;77.90;98570.94;4486325;31;34561;-86
2022/08/22 07:19:35;;;;;;;8.43;6.00;;;;;;;24.00;79.95;98572.88;4499654;31;34696;-85
2022/08/22 07:22:15;;;;;;;12.13;5.75;;;;;;;24.06;77.48;98573.34;4499432;31;34339;-85
2022/08/22 07:24:47;;;;;;;11.07;5.95;;;;;;;24.14;75.38;98577.09;4486091;32;34711;-85
2022/08/22 07:27:36;;;;;;;7.28;5.37;;;;;;;24.11;75.89;98584.47;4493424;31;35861;-88
2022/08/22 07:30:07;;;;;;;10.82;6.32;;;;;;;24.50;73.02;98575.13;4501998;31;34411;-86
2022/08/22 07:33:00;;;;;;;8.05;5.35;;;;;;;24.36;73.65;98578.88;4501037;31;33766;-87
2022/08/22 07:35:55;;;;;;;10.95;5.97;;;;;;;24.02;77.94;98578.06;4500007;31;34826;-85
2022/08/22 07:38:45;;;;;;;9.70;5.22;;;;;;;24.13;76.95;98575.41;4494109;31;34614;-88
2022/08/22 07:41:22;;;;;;;11.70;5.78;;;;;;;24.77;72.27;98571.22;4472813;32;35089;-89
2022/08/22 07:44:08;;;;;;;10.43;6.18;;;;;;;24.96;71.13;98586.53;4497373;31;33783;-88
2022/08/22 07:47:02;;;;;;;12.40;5.85;;;;;;;24.82;72.78;98578.84;4500989;31;33935;-87
2022/08/22 07:49:44;;;;;;;13.82;6.57;;;;;;;24.26;76.50;98585.91;4484847;32;35844;-86
2022/08/22 07:52:17;;;;;;;8.57;5.53;;;;;;;24.30;76.43;98590.03;4484908;32;34448;-84
2022/08/22 07:55:22;;;;;;;11.88;6.25;;;;;;;24.83;74.09;98593.84;4484541;32;33694;-86
2022/08/22 07:58:00;;;;;;;10.45;6.10;;;;;;;25.11;72.64;98584.41;4471942;32;33823;-87
2022/08/22 08:00:33;;;;;;;16.12;8.20;;;;;;;25.15;70.86;98593.88;4486199;32;34955;-87
2022/08/22 08:03:05;;;;;;;10.38;6.37;;;;;;;24.34;76.45;98588.81;4485047;32;33537;-89
2022/08/22 08:05:35;;;;;;;10.40;6.57;;;;;;;23.88;77.41;98588.91;4484668;31;34078;-89
2022/08/22 08:08:13;;;;;;;9.75;6.22;;;;;;;24.61;74.91;98587.59;4485576;32;33401;-88
2022/08/22 08:10:42;;;;;;;8.73;6.15;;;;;;;24.45;75.78;98587.12;4485825;32;35834;-87
2022/08/22 08:13:17;;;;;;;10.25;6.75;;;;;;;23.83;79.11;98592.78;4484688;32;35107;-88
2022/08/22 08:15:45;;;;;;;13.75;6.43;;;;;;;24.80;74.10;98586.94;4485760;32;34385;-89
2022/08/22 08:18:20;;;;;;;9.05;6.03;;;;;;;25.49;71.01;98586.56;4484569;32;33811;-89
2022/08/22 08:20:51;;;;;;;10.73;6.75;;;;;;;24.99;71.72;98594.28;4485104;31;35882;-89
2022/08/22 08:23:20;;;;;;;9.93;6.12;;;;;;;23.77;79.04;98592.38;4484626;32;34461;-89
2022/08/22 08:26:02;;;;;;;12.02;6.20;;;;;;;23.58;75.75;98599.13;4485072;32;33241;-88
2022/08/22 08:28:33;;;;;;;11.60;6.37;;;;;;;24.43;72.60;98595.22;4484497;32;34657;-88
2022/08/22 08:31:17;;;;;;;12.32;5.72;;;;;;;24.75;68.81;98595.31;4487737;31;34933;-89
2022/08/22 08:33:49;;;;;;;8.77;5.45;;;;;;;24.91;68.35;98594.06;4501678;31;34520;-88
2022/08/22 08:36:25;;;;;;;9.20;5.87;;;;;;;25.12;67.83;98592.28;4487493;31;34495;-85
2022/08/22 08:39:13;;;;;;;9.48;5.80;;;;;;;24.90;68.07;98592.34;4500663;31;34716;-83
2022/08/22 08:41:52;;;;;;;12.50;7.30;;;;;;;24.93;68.94;98592.94;4501382;31;35283;-89
2022/08/22 08:44:36;;;;;;;11.95;6.70;;;;;;;25.21;69.78;98595.16;4501381;31;34479;-89
2022/08/22 08:47:12;;;;;;;9.70;6.25;;;;;;;25.42;66.59;98588.06;4500258;31;33493;-89
2022/08/22 08:50:09;;;;;;;7.05;4.97;;;;;;;24.52;67.04;98593.63;4500071;31;33856;-90
2022/08/22 08:53:04;;;;;;;9.27;6.37;;;;;;;25.41;67.29;98590.84;4501216;31;34968;-89
2022/08/22 08:55:47;;;;;;;9.15;5.85;;;;;;;25.76;64.23;98593.19;4500373;31;34375;-88
2022/08/22 08:58:32;;;;;;;10.18;6.45;;;;;;;25.08;67.57;98590.84;4500156;31;34027;-89
2022/08/22 09:01:27;;;;;;;10.15;5.50;;;;;;;25.60;65.66;98595.47;4500027;31;34378;-89
2022/08/22 09:04:15;;;;;;;9.75;6.37;;;;;;;25.39;66.40;98593.66;4500989;31;35026;-88
2022/08/22 09:07:04;;;;;;;12.60;6.28;;;;;;;24.13;73.82;98602.00;4499812;31;33712;-88
2022/08/22 09:09:50;;;;;;;9.68;6.57;;;;;;;25.35;69.48;98595.72;4501129;31;33980;-87
2022/08/22 09:12:39;;;;;;;9.10;6.22;;;;;;;25.36;69.08;98596.59;4499415;31;33924;-87
2022/08/22 09:15:39;;;;;;;19.77;6.55;;;;;;;24.27;73.91;98606.25;4500787;31;35020;-82
2022/08/22 09:18:38;;;;;;;14.77;7.00;;;;;;;23.98;76.07;98601.41;4501081;31;34478;-89
2022/08/22 09:21:40;;;;;;;10.48;6.30;;;;;;;24.07;76.15;98601.63;4502834;31;33556;-87
2022/08/22 09:24:33;;;;;;;8.98;6.07;;;;;;;24.26;75.75;98606.34;4501694;31;33874;-86
2022/08/22 09:27:17;;;;;;;12.85;6.65;;;;;;;24.20;75.24;98608.53;4502753;31;34726;-85
2022/08/22 09:29:59;;;;;;;9.30;5.90;;;;;;;24.66;75.14;98605.87;4500953;31;34518;-86
2022/08/22 09:32:52;;;;;;;14.07;6.22;;;;;;;24.28;76.39;98607.06;4501545;31;34446;-88
2022/08/22 09:35:50;;;;;;;11.65;6.18;;;;;;;23.84;78.02;98602.47;4502471;31;33840;-84
2022/08/22 09:38:42;;;;;;;10.05;6.03;;;;;;;24.33;76.13;98602.22;4502739;31;34603;-86
2022/08/22 09:41:31;;;;;;;11.40;6.60;;;;;;;25.07;72.87;98605.13;4489295;31;34344;-84
2022/08/22 09:44:39;;;;;;;8.45;5.70;;;;;;;24.76;73.22;98602.34;4501420;31;33560;-86
2022/08/22 09:47:37;;;;;;;11.38;6.43;;;;;;;25.01;73.01;98596.78;4461520;31;34723;-88
2022/08/22 09:50:32;;;;;;;8.27;5.35;;;;;;;24.96;71.87;98602.53;4485545;32;35023;-86
2022/08/22 09:53:22;;;;;;;11.40;5.70;;;;;;;24.99;73.36;98607.59;4482972;32;34384;-83
2022/08/22 09:56:04;;;;;;;9.30;5.78;;;;;;;25.71;69.49;98600.72;4485546;32;32737;-85
2022/08/22 09:59:05;;;;;;;9.20;5.55;;;;;;;24.80;74.22;98602.94;4474124;32;33560;-85
2022/08/22 10:01:41;;;;;;;7.62;5.55;;;;;;;24.24;76.28;98606.47;4472880;32;34480;-85
2022/08/22 10:04:48;;;;;;;9.50;5.78;;;;;;;24.89;75.01;98607.50;4496581;31;33746;-85
2022/08/22 10:07:49;;;;;;;11.57;5.82;;;;;;;25.05;72.81;98604.41;4501320;31;33537;-85
2022/08/22 10:11:00;;;;;;;8.48;6.12;;;;;;;24.85;74.98;98605.19;4502271;31;34672;-84
2022/08/22 10:13:54;;;;;;;9.60;6.25;;;;;;;24.82;75.47;98610.81;4502473;31;35058;-85
2022/08/22 10:16:53;;;;;;;9.45;6.32;;;;;;;24.30;77.68;98600.69;4502382;31;34522;-85
2022/08/22 10:19:45;;;;;;;9.05;5.50;;;;;;;24.89;75.07;98602.16;4501351;31;33526;-85
2022/08/22 10:22:46;;;;;;;10.25;6.18;;;;;;;25.38;73.67;98607.97;4484954;32;32182;-85
2022/08/22 10:25:26;;;;;;;12.27;6.55;;;;;;;25.34;71.42;98611.84;4486481;32;34006;-83
2022/08/22 10:28:47;;;;;;;12.32;6.80;;;;;;;25.48;68.74;98603.56;4485710;32;34608;-83
2022/08/22 10:31:29;;;;;;;8.25;5.87;;;;;;;25.44;73.32;98607.44;4484000;31;32528;-86
2022/08/22 10:34:16;;;;;;;10.35;5.55;;;;;;;25.35;73.66;98606.37;4502262;31;33723;-87
2022/08/22 10:36:57;;;;;;;12.40;6.07;;;;;;;25.82;69.91;98611.34;4500405;31;35084;-84
2022/08/22 10:39:29;;;;;;;9.32;6.37;;;;;;;26.05;68.62;98605.91;4501080;31;34445;-85
2022/08/22 10:42:18;;;;;;;8.43;5.68;;;;;;;26.22;66.67;98613.25;4489079;31;32241;-86
2022/08/22 10:45:19;;;;;;;9.85;5.60;;;;;;;26.46;65.52;98599.56;4503584;31;34110;-85
2022/08/22 10:48:04;;;;;;;10.52;5.75;;;;;;;26.54;67.13;98611.41;4502153;31;34985;-86
2022/08/22 10:50:48;;;;;;;11.10;5.97;;;;;;;26.42;64.81;98616.00;4502226;31;34399;-86
2022/08/22 10:53:45;;;;;;;8.32;5.72;;;;;;;25.97;64.87;98608.38;4502261;31;33708;-85
2022/08/22 10:56:25;;;;;;;8.90;6.30;;;;;;;25.90;66.38;98608.84;4500757;31;33079;-86
2022/08/22 10:59:02;;;;;;;9.00;6.12;;;;;;;26.34;67.95;98611.34;4502125;31;35048;-86
2022/08/22 11:01:53;;;;;;;12.43;6.22;;;;;;;26.40;66.27;98600.13;4488216;31;34459;-85
2022/08/22 11:04:37;;;;;;;11.90;6.10;;;;;;;26.03;70.75;98602.47;4500870;31;33819;-85
2022/08/22 11:07:35;;;;;;;10.70;6.47;;;;;;;26.14;71.97;98605.09;4501026;31;34883;-85
2022/08/22 11:10:26;;;;;;;8.98;5.87;;;;;;;26.89;65.94;98600.25;4502055;31;34908;-84
2022/08/22 11:13:08;;;;;;;12.68;6.90;;;;;;;26.57;64.36;98595.94;4501477;31;34131;-87
2022/08/22 11:16:06;;;;;;;11.75;5.45;;;;;;;26.78;65.72;98605.75;4501976;31;33482;-85
2022/08/22 11:19:19;;;;;;;9.60;5.93;;;;;;;27.24;63.22;98604.22;4502354;31;33473;-86
2022/08/22 11:21:58;;;;;;;11.32;6.55;;;;;;;27.27;61.64;98603.12;4460211;31;34823;-83
2022/08/22 11:24:32;;;;;;;11.63;7.07;;;;;;;26.65;63.08;98606.00;4501988;31;34560;-84
2022/08/22 11:27:04;;;;;;;10.93;6.05;;;;;;;27.25;61.76;98600.59;4501930;31;33814;-87
2022/08/22 11:29:57;;;;;;;12.23;7.07;;;;;;;26.97;61.21;98607.59;4501285;31;34662;-84
2022/08/22 11:32:55;;;;;;;10.93;6.75;;;;;;;26.65;60.63;98598.00;4501676;31;35152;-85
2022/08/22 11:35:48;;;;;;;18.95;7.82;;;;;;;26.62;63.16;98596.41;4499962;31;33721;-85
2022/08/22 11:38:58;;;;;;;10.02;6.40;;;;;;;26.71;62.06;98601.94;4496567;31;33815;-85
2022/08/22 11:41:54;;;;;;;10.02;7.22;;;;;;;26.55;63.47;98592.59;4499915;31;34652;-85
2022/08/22 11:44:50;;;;;;;10.43;7.00;;;;;;;26.69;63.69;98601.22;4497321;31;35023;-85
2022/08/22 11:47:23;;;;;;;12.15;6.87;;;;;;;26.92;64.00;98594.66;4485288;31;35296;-86
2022/08/22 11:50:13;;;;;;;11.90;7.80;;;;;;;27.59;60.90;98600.16;4500816;31;33388;-86
2022/08/22 11:53:10;;;;;;;10.32;7.07;;;;;;;27.38;59.83;98590.47;4497798;31;34045;-87
2022/08/22 11:55:54;;;;;;;11.77;7.07;;;;;;;27.48;60.41;98589.59;4500246;31;35993;-87
2022/08/22 11:58:44;;;;;;;11.23;7.30;;;;;;;27.47;59.68;98587.94;4500707;31;34855;-86
2022/08/22 12:01:40;;;;;;;9.35;5.97;;;;;;;27.10;57.43;98592.13;4499163;31;33017;-87
2022/08/22 12:04:15;;;;;;;10.25;6.60;;;;;;;27.88;57.35;98596.56;4500978;31;33945;-86
2022/08/22 12:06:47;;;;;;;11.80;6.57;;;;;;;27.60;56.04;98593.81;4492554;31;35933;-87
2022/08/22 12:09:42;;;;;;;12.00;6.93;;;;;;;27.32;59.49;98590.19;4496443;31;33868;-87
2022/08/22 12:12:43;;;;;;;12.82;6.80;;;;;;;27.72;56.33;98581.13;4501690;31;33811;-86
2022/08/22 12:15:22;;;;;;;10.25;6.65;;;;;;;27.80;56.73;98579.41;4492950;31;32369;-85
2022/08/22 12:17:57;;;;;;;11.10;6.32;;;;;;;26.97;58.30;98584.41;4496901;31;35945;-85
2022/08/22 12:20:41;;;;;;;9.90;7.07;;;;;;;27.18;59.67;98578.91;4485786;32;35199;-84
2022/08/22 12:23:30;;;;;;;10.63;7.05;;;;;;;26.92;62.19;98586.62;4495000;31;33760;-85
2022/08/22 12:26:47;;;;;;;9.73;6.37;;;;;;;26.92;59.96;98583.97;4500247;31;33574;-85
2022/08/22 12:29:24;;;;;;;11.65;7.72;;;;;;;27.62;57.27;98583.84;4499674;31;35774;-86
2022/08/22 12:32:44;;;;;;;11.45;6.50;;;;;;;27.13;59.83;98585.69;4495735;31;34318;-85
2022/08/22 12:35:36;;;;;;;10.15;7.10;;;;;;;27.42;58.07;98578.53;4470537;32;33574;-86
2022/08/22 12:38:42;;;;;;;11.25;7.32;;;;;;;27.11;60.82;98577.78;4491396;31;34034;-86
2022/08/22 12:41:19;;;;;;;14.57;6.93;;;;;;;27.48;56.63;98574.44;4501458;31;35232;-86
2022/08/22 12:44:40;;;;;;;12.07;7.32;;;;;;;27.67;56.41;98572.69;4499726;31;35302;-85
2022/08/22 12:47:39;;;;;;;13.52;7.47;;;;;;;27.57;58.46;98573.56;4501391;31;33661;-85
2022/08/22 12:50:27;;;;;;;11.57;7.62;;;;;;;26.99;61.06;98573.56;4485640;32;33930;-86
2022/08/22 12:52:58;;;;;;;13.05;6.90;;;;;;;27.17;61.78;98582.56;4487943;31;34637;-87
2022/08/22 12:55:49;;;;;;;9.77;6.37;;;;;;;27.29;59.59;98580.63;4501451;31;35186;-86
2022/08/22 12:59:03;;;;;;;13.93;6.43;;;;;;;26.22;62.77;98586.56;4498696;31;34506;-86
2022/08/22 13:01:35;;;;;;;7.03;4.78;;;;;;;25.04;67.41;98583.22;4473701;31;34573;-85
2022/08/22 13:04:19;;;;;;;5.53;3.75;;;;;;;24.69;68.08;98589.63;4493454;31;34880;-86